createdAt,value
2019-06-08T00:02:29.723Z,16.52
2019-06-08T00:05:01.026Z,9.48
2019-06-08T00:07:31.819Z,8.15
2019-06-08T00:10:02.172Z,8.03
2019-06-08T00:12:32.486Z,9.03
2019-06-08T00:15:03.628Z,8.48
2019-06-08T00:17:38.403Z,15.25
2019-06-08T00:20:07.477Z,7.35
2019-06-08T00:22:38.948Z,9.30
2019-06-08T00:25:11.721Z,12.50
2019-06-08T00:27:42.061Z,9.60
2019-06-08T00:30:14.822Z,14.10
2019-06-08T00:32:45.146Z,11.00
2019-06-08T00:35:16.959Z,9.75
2019-06-08T00:37:47.260Z,10.35
2019-06-08T00:40:18.718Z,14.18
2019-06-08T00:42:50.399Z,9.50
2019-06-08T00:45:21.701Z,7.97
2019-06-08T00:47:52.071Z,15.48
2019-06-08T00:50:22.973Z,9.33
2019-06-08T00:52:53.628Z,9.03
2019-06-08T00:55:25.690Z,14.03
2019-06-08T00:57:56.372Z,12.33
2019-06-08T01:00:26.935Z,10.43
2019-06-08T01:02:57.249Z,15.95
2019-06-08T01:05:27.861Z,8.55
2019-06-08T01:07:58.606Z,16.52
2019-06-08T01:10:29.727Z,16.42
2019-06-08T01:13:00.509Z,9.08
2019-06-08T01:15:34.333Z,10.70
2019-06-08T01:18:04.378Z,14.13
2019-06-08T01:20:35.025Z,7.72
2019-06-08T01:23:06.125Z,15.40
2019-06-08T01:25:36.368Z,12.68
2019-06-08T01:28:07.016Z,11.95
2019-06-08T01:30:38.408Z,13.03
2019-06-08T01:33:08.717Z,7.17
2019-06-08T01:35:39.032Z,11.20
2019-06-08T01:38:09.961Z,13.15
2019-06-08T01:40:40.277Z,14.35
2019-06-08T01:43:10.599Z,12.35
2019-06-08T01:45:41.094Z,12.45
2019-06-08T01:48:19.863Z,17.67
2019-06-08T01:50:45.071Z,10.20
2019-06-08T01:53:16.436Z,11.60
2019-06-08T01:55:47.220Z,16.50
2019-06-08T01:58:18.341Z,9.00
2019-06-08T02:00:49.002Z,11.30
2019-06-08T02:03:19.519Z,14.50
2019-06-08T02:05:50.845Z,13.32
2019-06-08T02:08:21.579Z,13.85
2019-06-08T02:10:52.591Z,16.77
2019-06-08T02:13:22.945Z,15.25
2019-06-08T02:15:53.304Z,13.60
2019-06-08T02:18:36.481Z,12.15
2019-06-08T02:20:55.787Z,16.52
2019-06-08T02:23:27.226Z,19.17
2019-06-08T02:25:59.884Z,17.90
2019-06-08T02:28:30.142Z,18.10
2019-06-08T02:31:00.821Z,17.80
2019-06-08T02:33:32.485Z,12.82
2019-06-08T02:36:03.610Z,17.00
2019-06-08T02:38:34.608Z,19.98
2019-06-08T02:41:06.280Z,16.97
2019-06-08T02:43:38.292Z,12.45
2019-06-08T02:46:09.453Z,10.53
2019-06-08T02:49:00.111Z,24.52
2019-06-08T02:51:13.484Z,17.87
2019-06-08T02:53:44.322Z,8.35
2019-06-08T02:56:15.622Z,16.62
2019-06-08T02:58:47.304Z,10.35
2019-06-08T03:01:19.371Z,11.43
2019-06-08T03:03:51.478Z,10.85
2019-06-08T03:06:22.007Z,11.35
2019-06-08T03:08:55.457Z,20.43
2019-06-08T03:11:26.977Z,19.35
2019-06-08T03:13:58.931Z,19.65
2019-06-08T03:16:31.105Z,15.30
2019-06-08T03:19:19.972Z,15.00
2019-06-08T03:21:33.941Z,13.90
2019-06-08T03:24:05.959Z,16.20
2019-06-08T03:26:36.618Z,11.83
2019-06-08T03:29:08.655Z,12.80
2019-06-08T03:31:46.072Z,13.78
2019-06-08T03:34:11.844Z,13.43
2019-06-08T03:36:53.840Z,14.03
2019-06-08T03:39:15.079Z,14.00
2019-06-08T03:41:46.043Z,15.20
2019-06-08T03:44:17.075Z,13.10
2019-06-08T03:46:47.456Z,12.63
2019-06-08T03:49:17.813Z,13.65
2019-06-08T03:51:48.923Z,15.58
2019-06-08T03:54:20.345Z,14.25
2019-06-08T03:56:51.301Z,15.00
2019-06-08T03:59:21.957Z,16.37
2019-06-08T04:01:54.453Z,17.85
2019-06-08T04:04:25.116Z,14.55
2019-06-08T04:06:55.785Z,18.10
2019-06-08T04:09:26.146Z,13.65
2019-06-08T04:11:56.494Z,16.00
2019-06-08T04:14:27.637Z,19.15
2019-06-08T04:16:58.460Z,16.87
2019-06-08T04:19:29.128Z,11.43
2019-06-08T04:21:59.486Z,15.75
2019-06-08T04:24:31.351Z,16.12
2019-06-08T04:27:04.531Z,12.98
2019-06-08T04:29:34.855Z,12.43
2019-06-08T04:32:05.230Z,18.40
2019-06-08T04:34:35.560Z,10.05
2019-06-08T04:37:06.590Z,14.40
2019-06-08T04:39:38.416Z,15.53
2019-06-08T04:42:10.449Z,14.68
2019-06-08T04:44:42.502Z,12.23
2019-06-08T04:47:14.971Z,12.78
2019-06-08T04:49:47.231Z,12.40
2019-06-08T04:52:19.975Z,17.00
2019-06-08T04:54:50.317Z,11.15
2019-06-08T04:57:20.724Z,10.05
2019-06-08T04:59:51.091Z,10.28
2019-06-08T05:02:21.392Z,9.43
2019-06-08T05:04:51.670Z,10.68
2019-06-08T05:07:23.186Z,15.40
2019-06-08T05:09:53.820Z,13.68
2019-06-08T05:12:25.623Z,7.97
2019-06-08T05:14:55.945Z,10.80
2019-06-08T05:17:27.832Z,17.05
2019-06-08T05:19:58.136Z,10.80
2019-06-08T05:22:29.431Z,12.00
2019-06-08T05:25:00.403Z,9.50
2019-06-08T05:27:32.116Z,13.75
2019-06-08T05:30:08.355Z,10.03
2019-06-08T05:32:36.194Z,7.78
2019-06-08T05:35:08.000Z,12.28
2019-06-08T05:37:39.479Z,11.97
2019-06-08T05:40:10.015Z,10.28
2019-06-08T05:42:42.385Z,7.83
2019-06-08T05:45:12.812Z,16.50
2019-06-08T05:47:43.928Z,10.65
2019-06-08T05:50:14.740Z,11.00
2019-06-08T05:52:50.183Z,9.78
2019-06-08T05:55:20.614Z,12.10
2019-06-08T05:57:51.354Z,15.40
2019-06-08T06:00:21.654Z,6.60
2019-06-08T06:02:52.759Z,8.45
2019-06-08T06:05:24.370Z,13.75
2019-06-08T06:07:55.365Z,8.75
2019-06-08T06:10:26.016Z,11.75
2019-06-08T06:12:57.270Z,8.40
2019-06-08T06:15:27.945Z,12.53
2019-06-08T06:17:59.504Z,7.90
2019-06-08T06:20:30.291Z,9.38
2019-06-08T06:23:00.730Z,11.05
2019-06-08T06:25:31.259Z,9.70
2019-06-08T06:28:06.097Z,13.58
2019-06-08T06:30:34.746Z,9.70
2019-06-08T06:33:05.478Z,12.47
2019-06-08T06:35:35.723Z,6.80
2019-06-08T06:38:06.452Z,10.63
2019-06-08T06:40:36.723Z,8.30
2019-06-08T06:43:07.473Z,6.65
2019-06-08T06:45:37.695Z,7.10
2019-06-08T06:48:07.979Z,9.08
2019-06-08T06:50:38.234Z,6.17
2019-06-08T06:53:09.990Z,7.35
2019-06-08T06:55:40.345Z,8.73
2019-06-08T06:58:10.978Z,7.87
2019-06-08T07:00:43.176Z,8.73
2019-06-08T07:03:13.906Z,7.70
2019-06-08T07:05:44.248Z,9.25
2019-06-08T07:08:14.491Z,6.47
2019-06-08T07:10:46.651Z,10.43
2019-06-08T07:13:17.688Z,6.87
2019-06-08T07:15:52.665Z,8.50
2019-06-08T07:18:20.005Z,9.33
2019-06-08T07:20:50.366Z,7.40
2019-06-08T07:23:21.020Z,5.17
2019-06-08T07:25:52.869Z,8.05
2019-06-08T07:28:24.221Z,5.03
2019-06-08T07:30:54.904Z,4.15
2019-06-08T07:33:25.226Z,7.15
2019-06-08T07:35:55.957Z,5.53
2019-06-08T07:38:26.369Z,8.35
2019-06-08T07:40:59.879Z,7.85
2019-06-08T07:43:28.715Z,6.97
2019-06-08T07:45:59.451Z,8.13
2019-06-08T07:48:29.690Z,7.58
2019-06-08T07:51:00.418Z,5.67
2019-06-08T07:57:49.220Z,6.08
2019-06-08T08:00:23.843Z,6.45
2019-06-08T08:02:56.194Z,4.30
2019-06-08T08:05:26.521Z,4.85
2019-06-08T08:07:58.923Z,4.35
2019-06-08T08:10:29.777Z,6.95
2019-06-08T08:13:01.272Z,6.55
2019-06-08T08:15:31.575Z,9.70
2019-06-08T08:18:02.244Z,3.22
2019-06-08T08:20:32.580Z,3.83
2019-06-08T08:23:05.954Z,3.12
2019-06-08T08:25:34.844Z,4.35
2019-06-08T08:28:05.151Z,3.95
2019-06-08T08:30:37.666Z,10.10
2019-06-08T08:39:17.759Z,4.95
2019-06-08T08:41:53.719Z,5.65
2019-06-08T08:44:21.564Z,5.15
2019-06-08T08:46:53.567Z,5.45
2019-06-08T08:49:28.091Z,5.42
2019-06-08T08:52:01.453Z,3.50
2019-06-08T08:54:31.285Z,5.10
2019-06-08T08:57:05.142Z,4.50
2019-06-08T09:02:11.533Z,4.70
2019-06-08T09:04:40.367Z,8.70
2019-06-08T09:07:12.347Z,4.53
2019-06-08T09:09:43.077Z,4.40
2019-06-08T09:12:13.433Z,5.58
2019-06-08T09:14:43.663Z,2.75
2019-06-08T09:17:14.653Z,5.37
2019-06-08T09:19:44.966Z,5.70
2019-06-08T09:22:18.643Z,5.17
2019-06-08T09:24:48.708Z,5.60
2019-06-08T09:27:19.560Z,4.20
2019-06-08T09:29:49.862Z,2.45
2019-06-08T09:32:20.593Z,5.10
2019-06-08T09:34:52.895Z,4.00
2019-06-08T09:37:23.129Z,3.58
2019-06-08T09:39:53.957Z,5.28
2019-06-08T09:42:25.218Z,7.33
2019-06-08T09:44:57.846Z,7.87
2019-06-08T09:47:28.083Z,6.90
2019-06-08T09:50:02.498Z,6.47
2019-06-08T09:52:32.453Z,6.58
2019-06-08T09:55:05.039Z,6.28
2019-06-08T09:57:34.769Z,4.67
2019-06-08T10:00:15.405Z,4.85
2019-06-08T10:02:40.592Z,3.58
2019-06-08T10:05:11.025Z,3.45
2019-06-08T10:07:41.972Z,5.90
2019-06-08T10:10:13.700Z,4.15
2019-06-08T10:12:48.158Z,3.77
2019-06-08T10:15:18.010Z,5.87
2019-06-08T10:17:48.405Z,5.00
2019-06-08T10:20:18.768Z,7.45
2019-06-08T10:22:50.482Z,5.80
2019-06-08T10:25:21.277Z,5.75
2019-06-08T10:27:53.325Z,6.40
2019-06-08T10:30:24.131Z,5.78
2019-06-08T10:32:56.251Z,6.75
2019-06-08T10:35:28.330Z,5.70
2019-06-08T10:38:03.593Z,9.50
2019-06-08T10:40:32.175Z,6.28
2019-06-08T10:43:03.388Z,5.70
2019-06-08T10:45:34.489Z,6.55
2019-06-08T10:48:06.374Z,7.35
2019-06-08T10:50:37.644Z,2.95
2019-06-08T10:53:11.972Z,3.65
2019-06-08T10:55:40.820Z,7.97
2019-06-08T10:58:12.173Z,8.33
2019-06-08T11:00:42.544Z,4.95
2019-06-08T11:03:12.893Z,4.67
2019-06-08T11:05:43.210Z,4.15
2019-06-08T11:08:14.658Z,2.77
2019-06-08T11:10:47.460Z,5.67
2019-06-08T11:13:18.869Z,6.53
2019-06-08T11:15:49.513Z,6.17
2019-06-08T11:18:19.824Z,3.90
2019-06-08T11:20:50.167Z,2.85
2019-06-08T11:23:20.697Z,7.00
2019-06-08T11:25:51.356Z,5.87
2019-06-08T11:28:22.753Z,4.72
2019-06-08T11:30:53.796Z,4.35
2019-06-08T11:33:25.086Z,5.33
2019-06-08T11:35:58.143Z,5.55
2019-06-08T11:38:28.849Z,8.33
2019-06-08T11:41:00.950Z,6.58
2019-06-08T11:43:31.761Z,4.33
2019-06-08T11:46:02.654Z,6.35
2019-06-08T11:48:33.018Z,5.90
2019-06-08T11:51:04.682Z,5.83
2019-06-08T11:53:38.292Z,7.37
2019-06-08T11:56:10.042Z,3.62
2019-06-08T11:58:40.679Z,8.28
2019-06-08T12:01:13.734Z,5.70
2019-06-08T12:03:44.747Z,4.15
2019-06-08T12:06:15.249Z,7.40
2019-06-08T12:08:47.319Z,8.40
2019-06-08T12:11:19.709Z,3.85
2019-06-08T12:13:49.715Z,6.50
2019-06-08T12:16:22.303Z,4.50
2019-06-08T12:18:52.348Z,4.58
2019-06-08T12:21:22.716Z,2.60
2019-06-08T12:23:52.971Z,9.43
2019-06-08T12:26:23.645Z,3.62
2019-06-08T12:28:54.146Z,4.53
2019-06-08T12:31:28.069Z,4.35
2019-06-08T12:36:30.747Z,4.50
2019-06-08T12:39:01.141Z,3.50
2019-06-08T12:41:33.976Z,2.60
2019-06-08T12:44:04.903Z,3.37
2019-06-08T12:46:40.931Z,4.25
2019-06-08T12:49:10.962Z,2.50
2019-06-08T12:51:40.491Z,4.83
2019-06-08T12:54:12.738Z,3.47
2019-06-08T12:56:43.399Z,7.42
2019-06-08T12:59:20.869Z,5.12
2019-06-08T13:01:48.666Z,5.28
2019-06-08T13:04:23.485Z,3.35
2019-06-08T13:06:52.916Z,2.20
2019-06-08T13:09:23.651Z,3.12
2019-06-08T13:11:56.382Z,2.10
2019-06-08T13:14:28.406Z,6.25
2019-06-08T13:17:00.984Z,2.12
2019-06-08T13:19:31.563Z,6.10
2019-06-08T13:22:01.882Z,3.60
2019-06-08T13:24:32.240Z,2.92
2019-06-08T13:27:02.586Z,6.67
2019-06-08T13:29:34.558Z,2.25
2019-06-08T13:32:07.878Z,3.37
2019-06-08T13:34:38.777Z,4.35
2019-06-08T13:37:10.630Z,3.90
2019-06-08T13:39:41.703Z,6.33
2019-06-08T13:42:15.225Z,3.75
2019-06-08T13:44:47.489Z,3.00
2019-06-08T13:47:18.936Z,6.80
2019-06-08T13:49:50.772Z,7.42
2019-06-08T13:52:23.418Z,6.80
2019-06-08T13:54:53.475Z,3.80
2019-06-08T13:57:25.076Z,4.53
2019-06-08T13:59:57.846Z,11.78
2019-06-08T14:02:31.442Z,4.25
2019-06-08T14:05:00.434Z,3.40
2019-06-08T14:07:34.307Z,6.67
2019-06-08T14:10:02.828Z,5.15
2019-06-08T14:12:33.698Z,3.90
2019-06-08T14:15:08.417Z,7.12
2019-06-08T14:17:38.044Z,2.72
2019-06-08T14:20:09.450Z,3.80
2019-06-08T14:22:39.892Z,3.25
2019-06-08T14:25:10.842Z,4.15
2019-06-08T14:27:41.343Z,6.97
2019-06-08T14:30:12.423Z,4.35
2019-06-08T14:32:44.973Z,5.78
2019-06-08T14:35:18.691Z,3.55
2019-06-08T14:37:48.251Z,2.70
2019-06-08T14:40:19.366Z,5.00
2019-06-08T14:42:49.692Z,5.85
2019-06-08T14:45:20.817Z,4.78
2019-06-08T14:47:51.091Z,5.37
2019-06-08T14:50:22.907Z,3.62
2019-06-08T14:52:54.990Z,1.82
2019-06-08T14:55:29.238Z,6.17
2019-06-08T14:57:58.132Z,4.58
2019-06-08T15:00:29.706Z,4.30
2019-06-08T15:03:00.246Z,7.17
2019-06-08T15:05:32.284Z,6.12
2019-06-08T15:08:02.579Z,4.20
2019-06-08T15:10:33.716Z,4.37
2019-06-08T15:13:03.983Z,3.27
2019-06-08T15:15:34.640Z,5.25
2019-06-08T15:18:05.121Z,2.58
2019-06-08T15:20:37.813Z,3.27
2019-06-08T15:23:08.266Z,4.25
2019-06-08T15:25:39.323Z,4.28
2019-06-08T15:28:09.571Z,2.58
2019-06-08T15:30:41.314Z,3.08
2019-06-08T15:33:11.630Z,3.92
2019-06-08T15:35:42.379Z,1.87
2019-06-08T15:38:12.622Z,3.27
2019-06-08T15:40:43.252Z,2.52
2019-06-08T15:43:13.515Z,7.33
2019-06-08T15:45:44.402Z,3.35
2019-06-08T15:48:14.687Z,1.92
2019-06-08T15:50:47.154Z,3.67
2019-06-08T15:53:18.388Z,2.25
2019-06-08T15:55:51.991Z,3.60
2019-06-08T15:58:22.841Z,3.33
2019-06-08T16:00:55.585Z,4.75
2019-06-08T16:03:25.496Z,4.15
2019-06-08T16:05:56.475Z,4.03
2019-06-08T16:08:27.856Z,3.25
2019-06-08T16:10:58.249Z,5.80
2019-06-08T16:13:28.815Z,3.90
2019-06-08T16:15:59.567Z,3.10
2019-06-08T16:18:29.869Z,3.67
2019-06-08T16:21:01.357Z,3.80
2019-06-08T16:23:31.921Z,5.53
2019-06-08T16:26:03.091Z,8.08
2019-06-08T16:28:34.396Z,5.12
2019-06-08T16:31:06.674Z,4.05
2019-06-08T16:33:36.939Z,4.47
2019-06-08T16:36:10.582Z,5.37
2019-06-08T16:38:41.225Z,2.67
2019-06-08T16:41:11.888Z,2.75
2019-06-08T16:43:43.588Z,4.22
2019-06-08T16:46:15.081Z,6.75
2019-06-08T16:48:45.405Z,4.25
2019-06-08T16:51:16.222Z,4.20
2019-06-08T16:53:46.519Z,4.40
2019-06-08T16:56:17.926Z,3.15
2019-06-08T16:58:48.549Z,8.20
2019-06-08T17:01:19.491Z,2.58
2019-06-08T17:03:49.735Z,4.85
2019-06-08T17:06:22.874Z,4.95
2019-06-08T17:08:53.175Z,3.67
2019-06-08T17:11:23.532Z,5.12
2019-06-08T17:13:53.932Z,7.20
2019-06-08T17:16:24.625Z,4.30
2019-06-08T17:18:55.899Z,6.58
2019-06-08T17:21:26.927Z,4.28
2019-06-08T17:23:57.353Z,5.08
2019-06-08T17:26:28.015Z,5.33
2019-06-08T17:28:58.453Z,6.00
2019-06-08T17:31:28.971Z,2.50
2019-06-08T17:33:59.610Z,2.95
2019-06-08T17:36:32.030Z,3.65
2019-06-08T17:39:02.367Z,4.80
2019-06-08T17:41:36.013Z,3.40
2019-06-08T17:44:06.470Z,3.85
2019-06-08T17:46:39.172Z,3.15
2019-06-08T17:49:10.021Z,3.67
2019-06-08T17:51:41.822Z,4.67
2019-06-08T17:54:12.139Z,3.17
2019-06-08T17:56:43.496Z,4.67
2019-06-08T17:59:13.744Z,5.65
2019-06-08T18:01:44.416Z,4.20
2019-06-08T18:04:14.760Z,3.22
2019-06-08T18:06:49.120Z,3.02
2019-06-08T18:09:19.481Z,3.67
2019-06-08T18:11:49.820Z,7.45
2019-06-08T18:14:20.931Z,4.78
2019-06-08T18:16:51.609Z,3.20
2019-06-08T18:19:29.993Z,6.70
2019-06-08T18:22:04.471Z,8.68
2019-06-08T18:24:32.793Z,3.25
2019-06-08T18:27:03.494Z,4.50
2019-06-08T18:29:34.603Z,3.87
2019-06-08T18:32:07.602Z,3.08
2019-06-08T18:34:40.286Z,4.28
2019-06-08T18:37:11.399Z,6.95
2019-06-08T18:39:44.416Z,8.50
2019-06-08T18:42:17.634Z,3.10
2019-06-08T18:44:49.044Z,4.90
2019-06-08T18:47:20.817Z,2.62
2019-06-08T18:49:52.001Z,3.40
2019-06-08T18:52:22.306Z,3.22
2019-06-08T18:54:52.633Z,5.42
2019-06-08T18:57:23.354Z,5.25
2019-06-08T18:59:53.755Z,4.67
2019-06-08T19:02:25.919Z,4.40
2019-06-08T19:04:57.359Z,10.40
2019-06-08T19:07:28.725Z,3.45
2019-06-08T19:10:01.433Z,4.08
2019-06-08T19:12:32.489Z,4.72
2019-06-08T19:15:08.306Z,4.90
2019-06-08T19:17:43.899Z,4.37
2019-06-08T19:20:11.759Z,4.92
2019-06-08T19:22:46.497Z,9.15
2019-06-08T19:25:17.479Z,3.83
2019-06-08T19:27:52.956Z,5.37
2019-06-08T19:30:20.349Z,4.83
2019-06-08T19:32:52.610Z,8.43
2019-06-08T19:35:23.011Z,4.95
2019-06-08T19:37:54.087Z,3.60
2019-06-08T19:40:24.411Z,3.40
2019-06-08T19:43:00.978Z,4.40
2019-06-08T19:45:28.562Z,9.18
2019-06-08T19:47:58.871Z,5.28
2019-06-08T19:50:30.052Z,7.28
2019-06-08T19:53:00.917Z,5.35
2019-06-08T19:55:31.732Z,7.05
2019-06-08T19:58:02.071Z,6.85
2019-06-08T20:00:32.799Z,6.33
2019-06-08T20:03:07.536Z,5.80
2019-06-08T20:08:08.406Z,6.78
2019-06-08T20:10:39.134Z,6.17
2019-06-08T20:13:09.784Z,4.30
2019-06-08T20:15:46.373Z,6.17
2019-06-08T20:18:13.080Z,6.08
2019-06-08T20:20:43.844Z,6.10
2019-06-08T20:23:14.653Z,4.33
2019-06-08T20:25:45.241Z,9.73
2019-06-08T20:28:17.320Z,3.83
2019-06-08T20:30:48.495Z,5.20
2019-06-08T20:33:19.523Z,4.53
2019-06-08T20:35:51.771Z,4.35
2019-06-08T20:38:35.225Z,7.62
2019-06-08T20:40:54.638Z,5.50
2019-06-08T20:43:25.244Z,4.65
2019-06-08T20:45:58.209Z,5.40
2019-06-08T20:48:28.521Z,6.35
2019-06-08T20:51:00.675Z,4.78
2019-06-08T20:53:30.980Z,5.15
2019-06-08T20:56:01.934Z,4.72
2019-06-08T20:58:32.222Z,6.75
2019-06-08T21:01:02.874Z,3.65
2019-06-08T21:03:33.601Z,6.65
2019-06-08T21:06:04.641Z,7.28
2019-06-08T21:08:38.574Z,3.92
2019-06-08T21:11:08.914Z,6.28
2019-06-08T21:13:39.256Z,2.87
2019-06-08T21:16:10.251Z,6.92
2019-06-08T21:18:41.063Z,5.75
2019-06-08T21:21:11.336Z,6.90
2019-06-08T21:23:41.692Z,5.92
2019-06-08T21:26:14.309Z,4.85
2019-06-08T21:28:49.837Z,3.83
2019-06-08T21:31:18.800Z,7.97
2019-06-08T21:33:52.154Z,3.22
2019-06-08T21:36:21.907Z,8.70
2019-06-08T21:38:55.336Z,7.50
2019-06-08T21:41:27.913Z,4.75
2019-06-08T21:44:01.673Z,5.15
2019-06-08T21:46:30.186Z,9.65
2019-06-08T21:49:00.886Z,3.33
2019-06-08T21:51:31.211Z,4.80
2019-06-08T21:54:01.588Z,5.78
2019-06-08T21:56:32.277Z,9.55
2019-06-08T21:59:02.962Z,9.45
2019-06-08T22:01:33.789Z,12.35
2019-06-08T22:04:04.600Z,13.48
2019-06-08T22:06:37.231Z,7.30
2019-06-08T22:09:09.709Z,7.37
2019-06-08T22:11:40.713Z,10.03
2019-06-08T22:14:10.962Z,8.65
2019-06-08T22:16:41.713Z,10.18
2019-06-08T22:19:13.019Z,13.18
2019-06-08T22:21:43.352Z,9.53
2019-06-08T22:24:13.712Z,11.70
2019-06-08T22:26:44.020Z,13.13
2019-06-08T22:29:18.118Z,6.67
2019-06-08T22:31:47.967Z,11.73
2019-06-08T22:34:19.654Z,9.60
2019-06-08T22:36:53.068Z,12.68
2019-06-08T22:39:23.900Z,6.97
2019-06-08T22:41:58.522Z,14.40
2019-06-08T22:44:28.916Z,7.33
2019-06-08T22:47:01.990Z,7.00
2019-06-08T22:49:32.519Z,19.27
2019-06-08T22:52:04.293Z,8.60
2019-06-08T22:54:34.692Z,10.70
2019-06-08T22:57:07.800Z,8.45
2019-06-08T22:59:38.495Z,8.73
2019-06-08T23:02:09.329Z,6.05
2019-06-08T23:04:39.567Z,9.10
2019-06-08T23:07:25.485Z,9.33
2019-06-08T23:09:42.167Z,10.18
2019-06-08T23:12:13.231Z,11.43
2019-06-08T23:14:43.536Z,6.92
2019-06-08T23:17:13.819Z,8.80
2019-06-08T23:19:44.385Z,12.28
2019-06-08T23:22:14.628Z,12.53
2019-06-08T23:24:44.974Z,9.88
2019-06-08T23:27:17.579Z,9.65
2019-06-08T23:29:47.909Z,9.33
2019-06-08T23:32:18.300Z,13.53
2019-06-08T23:34:48.959Z,11.55
2019-06-08T23:37:19.389Z,11.45
2019-06-08T23:39:51.410Z,17.70
2019-06-08T23:42:22.386Z,8.25
2019-06-08T23:44:52.766Z,11.28
2019-06-08T23:47:23.738Z,11.08
2019-06-08T23:49:54.016Z,9.28
2019-06-08T23:52:27.738Z,8.50
2019-06-08T23:54:59.584Z,13.35
2019-06-08T23:57:30.437Z,9.35
